KAGC/AGC METAR and TAF weather

Enter ICAO airport designator
Station Type Date Time Source
KAGC METAR 2018/09/21 22:53 UTC NOAA

KAGC 212253Z 21010G20KT 10SM CLR 27/21 A2992 RMK AO2 SLP127 T02720206


Station Type Date Time Source
KAGC Decoded METAR 2018/09/21 22:53 UTC NOAA

PITTSBURGH ALLEGHENY CTY., PA, United States (KAGC) 40-21N 079-55W 389M
Sep 21, 2018 - 06:53 PM EDT / 2018.09.21 2253 UTC
Wind: from the SSW (210 degrees) at 12 MPH (10 KT) gusting to 23 MPH (20 KT):0
Visibility: 10 mile(s):0
Sky conditions: clear
Temperature: 81.0 F (27.2 C)
Dew Point: 69.1 F (20.6 C)
Relative Humidity: 67%
Pressure (altimeter): 29.92 in. Hg (1013 hPa)
ob: KAGC 212253Z 21010G20KT 10SM CLR 27/21 A2992 RMK AO2 SLP127 T02720206
cycle: 23

Station Type Date Time Source
KAGC TAF 2018/09/21 18:39 UTC NOAA

TAF KAGC 211736Z 2118/2218 21016G26KT P6SM SCT045
FM212300 23012G25KT P6SM VCTS BKN035CB
TEMPO 2200/2202 3SM TSRA BKN025CB
FM220200 25012G20KT P6SM BKN025
FM220400 31010KT P6SM BKN100
FM221500 02006KT P6SM BKN025


Example: see airport list